KSGR/SGR METAR and TAF weather

Enter ICAO airport designator
Station Type Date Time Source
KSGR METAR 2019/11/18 11:45 UTC NOAA

KSGR 181145Z AUTO 00000KT 1/2SM FG CLR 08/08 A2998 RMK AO2 T00830083


Station Type Date Time Source
KSGR Decoded METAR 2019/11/18 11:45 UTC NOAA

SUGARLAND REGIONAL AIRPORT, TX, United States (KSGR) 29-37N 095-39W
Nov 18, 2019 - 06:45 AM EST / 2019.11.18 1145 UTC
Wind: Calm:0
Visibility: 1/2 mile(s):0
Sky conditions: clear
Weather: fog
Temperature: 46.9 F (8.3 C)
Dew Point: 46.9 F (8.3 C)
Relative Humidity: 100%
Pressure (altimeter): 29.98 in. Hg (1015 hPa)
ob: KSGR 181145Z AUTO 00000KT 1/2SM FG CLR 08/08 A2998 RMK AO2 T00830083
cycle: 12

Station Type Date Time Source
KSGR TAF 2019/11/18 12:24 UTC NOAA

TAF KSGR 181121Z 1812/1912 00000KT 3SM BR SKC
TEMPO 1812/1814 1SM BR
FM181500 32003KT 6SM BR SKC
FM181800 33004KT P6SM SKC
FM190800 00000KT 5SM BR SKC

Example: see airport list